Time;durP1;ratioP1;P1;durP2;ratioP2;P2;SDS_P1;SDS_P2;PMS_P1;PMS_P2;Temp;Humidity;BMP_temperature;BMP_pressure;BME280_temperature;BME280_humidity;BME280_pressure;Samples;Min_cycle;Max_cycle;Signal;HPM_P1;HPM_P2
2023/07/25 00:00:25;;;;;;;13.25;4.80;;;16.10;78.90;;;;;;4983365;28;20067;-73
2023/07/25 00:02:50;;;;;;;8.50;4.45;;;16.10;78.80;;;;;;4986195;28;20588;-75
2023/07/25 00:05:16;;;;;;;10.98;4.68;;;16.10;78.90;;;;;;4985846;28;20258;-76
2023/07/25 00:07:42;;;;;;;8.43;3.97;;;16.10;78.70;;;;;;4985192;28;20114;-73
2023/07/25 00:10:08;;;;;;;9.52;4.28;;;16.10;78.60;;;;;;4983205;28;20390;-73
2023/07/25 00:12:37;;;;;;;10.95;3.88;;;16.10;78.70;;;;;;4984993;28;20536;-73
2023/07/25 00:15:04;;;;;;;10.73;4.32;;;16.10;78.50;;;;;;4989662;28;20034;-73
2023/07/25 00:17:30;;;;;;;11.00;4.85;;;16.10;78.80;;;;;;4986343;28;20065;-73
2023/07/25 00:19:55;;;;;;;12.40;4.50;;;16.10;78.50;;;;;;4983549;28;20717;-73
2023/07/25 00:22:21;;;;;;;10.55;4.00;;;16.10;78.70;;;;;;4985354;28;20030;-74
2023/07/25 00:24:47;;;;;;;10.25;4.63;;;16.10;78.50;;;;;;4986443;28;20035;-72
2023/07/25 00:27:12;;;;;;;9.65;4.43;;;16.10;78.40;;;;;;4986487;28;20114;-76
2023/07/25 00:29:38;;;;;;;8.50;4.20;;;16.10;78.40;;;;;;4986923;28;21485;-73
2023/07/25 00:32:04;;;;;;;9.52;4.25;;;16.10;78.50;;;;;;4982758;28;20109;-73
2023/07/25 00:34:30;;;;;;;12.00;4.38;;;16.10;78.60;;;;;;4983660;28;20050;-73
2023/07/25 00:36:56;;;;;;;11.43;4.10;;;16.10;78.40;;;;;;4981404;28;20085;-73
2023/07/25 00:39:22;;;;;;;13.23;4.65;;;16.10;78.60;;;;;;4983120;28;20054;-73
2023/07/25 00:41:48;;;;;;;9.82;4.38;;;16.10;78.60;;;;;;4983069;28;20086;-73
2023/07/25 00:44:14;;;;;;;13.20;4.40;;;16.10;78.70;;;;;;4983563;28;20885;-74
2023/07/25 00:46:41;;;;;;;12.73;4.93;;;16.10;79.00;;;;;;4980073;28;20026;-73
2023/07/25 00:49:07;;;;;;;9.35;3.90;;;16.10;79.00;;;;;;4984510;28;20141;-74
2023/07/25 00:51:33;;;;;;;11.82;4.85;;;16.10;79.10;;;;;;4982958;28;20211;-74
2023/07/25 00:53:59;;;;;;;12.32;5.20;;;16.10;79.20;;;;;;4983686;28;20125;-73
2023/07/25 00:56:26;;;;;;;12.98;4.93;;;16.10;79.30;;;;;;4990772;28;20701;-72
2023/07/25 00:58:52;;;;;;;10.40;5.10;;;16.10;79.40;;;;;;4987410;28;20193;-73
2023/07/25 01:01:18;;;;;;;8.85;4.97;;;16.10;79.70;;;;;;4981472;28;20073;-73
2023/07/25 01:03:44;;;;;;;11.50;5.10;;;16.10;79.80;;;;;;5000610;28;20439;-73
2023/07/25 01:06:13;;;;;;;9.60;5.32;;;16.10;79.90;;;;;;4989054;28;20022;-75
2023/07/25 01:08:53;;;;;;;12.85;5.78;;;16.10;80.10;;;;;;5001954;28;20121;-76
2023/07/25 01:11:20;;;;;;;12.80;5.45;;;16.10;80.30;;;;;;4991462;28;20474;-73
2023/07/25 01:13:46;;;;;;;14.85;5.68;;;16.00;80.40;;;;;;4984159;28;20042;-75
2023/07/25 01:16:18;;;;;;;11.30;6.22;;;16.00;80.60;;;;;;4990446;28;20042;-73
2023/07/25 01:18:44;;;;;;;13.48;6.03;;;16.00;80.70;;;;;;4988023;28;20065;-74
2023/07/25 01:21:12;;;;;;;11.13;6.25;;;15.90;80.70;;;;;;4992155;28;20063;-73
2023/07/25 01:23:38;;;;;;;11.23;5.60;;;15.80;80.80;;;;;;4984723;28;20111;-74
2023/07/25 01:26:03;;;;;;;12.57;6.43;;;15.90;80.80;;;;;;4984019;28;20053;-73
2023/07/25 01:28:30;;;;;;;12.27;6.00;;;15.80;80.80;;;;;;4985524;28;20030;-74
2023/07/25 01:30:56;;;;;;;11.15;5.53;;;15.80;81.10;;;;;;4986709;28;20042;-74
2023/07/25 01:33:22;;;;;;;11.07;5.40;;;15.70;81.20;;;;;;4984039;28;20303;-73
2023/07/25 01:35:49;;;;;;;14.45;6.18;;;15.70;81.20;;;;;;4988365;28;20133;-74
2023/07/25 01:38:14;;;;;;;11.07;5.25;;;15.70;81.20;;;;;;4983733;28;20030;-73
2023/07/25 01:40:41;;;;;;;11.15;5.47;;;15.60;81.40;;;;;;4982095;28;20055;-73
2023/07/25 01:43:07;;;;;;;11.68;5.70;;;15.60;81.40;;;;;;4983483;28;20023;-74
2023/07/25 01:45:33;;;;;;;10.25;5.68;;;15.70;81.50;;;;;;4985332;28;20794;-73
2023/07/25 01:47:59;;;;;;;14.98;5.90;;;15.70;81.60;;;;;;4984621;28;20110;-75
2023/07/25 01:50:28;;;;;;;12.57;5.32;;;15.70;81.70;;;;;;4983897;28;20038;-75
2023/07/25 01:52:54;;;;;;;14.02;5.97;;;15.70;81.80;;;;;;4999370;28;20414;-72
2023/07/25 01:55:20;;;;;;;12.40;6.00;;;15.70;81.80;;;;;;4983347;28;20034;-74
2023/07/25 01:57:46;;;;;;;12.00;5.68;;;15.70;81.90;;;;;;4982448;28;20073;-73
2023/07/25 02:00:12;;;;;;;10.10;4.95;;;15.70;82.00;;;;;;4984024;28;20036;-73
2023/07/25 02:02:38;;;;;;;12.52;5.63;;;15.70;82.00;;;;;;4986145;28;20398;-73
2023/07/25 02:05:04;;;;;;;11.52;5.50;;;15.70;81.90;;;;;;4983418;28;20034;-74
2023/07/25 02:07:30;;;;;;;10.23;5.25;;;15.60;81.90;;;;;;4982216;28;20076;-73
2023/07/25 02:09:56;;;;;;;9.70;5.45;;;15.60;82.00;;;;;;4986461;28;20022;-72
2023/07/25 02:12:22;;;;;;;12.75;5.70;;;15.60;81.90;;;;;;4981097;28;20027;-73
2023/07/25 02:14:48;;;;;;;11.25;5.90;;;15.60;81.90;;;;;;4982949;28;20045;-74
2023/07/25 02:17:13;;;;;;;10.02;5.00;;;15.70;81.90;;;;;;4979715;28;20042;-73
2023/07/25 02:19:39;;;;;;;12.35;5.20;;;15.70;81.90;;;;;;4984227;28;20026;-73
2023/07/25 02:22:05;;;;;;;12.20;5.53;;;15.60;81.90;;;;;;4981750;28;20691;-73
2023/07/25 02:24:31;;;;;;;10.57;5.25;;;15.70;81.80;;;;;;4985818;28;20503;-75
2023/07/25 02:26:57;;;;;;;12.45;5.10;;;15.60;81.90;;;;;;4982782;28;20084;-74
2023/07/25 02:29:23;;;;;;;13.48;5.47;;;15.70;82.10;;;;;;4983729;28;20124;-74
2023/07/25 02:31:49;;;;;;;11.82;5.78;;;15.70;82.20;;;;;;4985875;28;20491;-73
2023/07/25 02:34:15;;;;;;;10.50;5.05;;;15.70;82.20;;;;;;4990366;28;20212;-74
2023/07/25 02:36:42;;;;;;;10.38;5.40;;;15.70;82.30;;;;;;4986405;28;20122;-73
2023/07/25 02:39:08;;;;;;;10.90;5.57;;;15.70;82.40;;;;;;4987463;28;20034;-73
2023/07/25 02:41:34;;;;;;;10.15;5.50;;;15.70;82.40;;;;;;4990542;28;20046;-73
2023/07/25 02:44:00;;;;;;;12.18;5.82;;;15.70;82.30;;;;;;4984726;28;20038;-74
2023/07/25 02:46:26;;;;;;;10.73;5.45;;;15.70;82.40;;;;;;4988561;28;20034;-73
2023/07/25 02:48:51;;;;;;;11.85;5.50;;;15.70;82.40;;;;;;4991611;28;20030;-73
2023/07/25 02:51:17;;;;;;;11.50;5.38;;;15.70;82.00;;;;;;4979122;28;20038;-72
2023/07/25 02:53:43;;;;;;;10.73;5.63;;;15.60;82.10;;;;;;4985505;28;20030;-73
2023/07/25 02:56:09;;;;;;;11.68;4.65;;;15.70;81.90;;;;;;4987370;28;20088;-78
2023/07/25 02:58:35;;;;;;;11.45;4.78;;;15.60;81.90;;;;;;4986189;28;20022;-76
2023/07/25 03:01:00;;;;;;;12.38;5.10;;;15.60;82.00;;;;;;4987790;28;20934;-73
2023/07/25 03:03:26;;;;;;;12.02;4.78;;;15.60;82.00;;;;;;4989400;28;20278;-73
2023/07/25 03:05:52;;;;;;;11.10;5.10;;;15.60;82.10;;;;;;4983704;28;20035;-73
2023/07/25 03:08:17;;;;;;;10.80;4.28;;;15.60;82.00;;;;;;4986881;28;20505;-73
2023/07/25 03:10:43;;;;;;;10.95;4.38;;;15.60;81.90;;;;;;4986283;28;20101;-75
2023/07/25 03:13:09;;;;;;;10.52;4.70;;;15.50;81.90;;;;;;4987395;28;20050;-74
2023/07/25 03:15:34;;;;;;;11.75;5.07;;;15.60;82.00;;;;;;4996294;28;20045;-73
2023/07/25 03:18:00;;;;;;;12.20;4.50;;;15.60;82.00;;;;;;4987026;28;20418;-74
2023/07/25 03:20:26;;;;;;;11.57;4.82;;;15.60;82.10;;;;;;4986506;28;20054;-73
2023/07/25 03:22:51;;;;;;;9.55;4.72;;;15.50;82.30;;;;;;4989237;28;20026;-76
2023/07/25 03:25:17;;;;;;;8.00;3.65;;;15.60;82.30;;;;;;4985465;28;20046;-73
2023/07/25 03:27:43;;;;;;;11.95;4.90;;;15.50;82.20;;;;;;4989516;28;20030;-74
2023/07/25 03:30:09;;;;;;;9.23;4.07;;;15.50;82.30;;;;;;4988453;28;20042;-73
2023/07/25 03:32:34;;;;;;;13.70;5.03;;;15.50;82.40;;;;;;4987917;28;20046;-74
2023/07/25 03:35:00;;;;;;;10.98;4.40;;;15.50;82.30;;;;;;4987153;28;20034;-75
2023/07/25 03:37:26;;;;;;;7.57;3.70;;;15.50;82.40;;;;;;4990439;28;20026;-73
2023/07/25 03:39:51;;;;;;;12.75;4.90;;;15.50;82.60;;;;;;4987599;28;20327;-73
2023/07/25 03:42:17;;;;;;;9.30;4.70;;;15.50;82.50;;;;;;5008771;28;20058;-73
2023/07/25 03:44:43;;;;;;;9.63;4.55;;;15.50;82.70;;;;;;4988207;28;20053;-74
2023/07/25 03:47:09;;;;;;;13.07;4.50;;;15.50;82.60;;;;;;4988271;28;20034;-73
2023/07/25 03:49:34;;;;;;;14.57;4.63;;;15.50;82.30;;;;;;4983850;28;20026;-74
2023/07/25 03:52:00;;;;;;;12.48;4.30;;;15.40;82.40;;;;;;4987893;28;20062;-73
2023/07/25 03:54:26;;;;;;;9.57;3.83;;;15.40;82.30;;;;;;4985396;28;20057;-73
2023/07/25 03:56:51;;;;;;;10.10;4.38;;;15.40;82.40;;;;;;4987613;28;20035;-73
2023/07/25 03:59:18;;;;;;;11.30;4.65;;;15.40;82.20;;;;;;4987123;28;20495;-73
2023/07/25 04:01:44;;;;;;;13.00;4.20;;;15.40;82.30;;;;;;5002027;28;20125;-73
2023/07/25 04:04:10;;;;;;;11.10;3.80;;;15.40;82.20;;;;;;4985635;28;20125;-74
2023/07/25 04:06:37;;;;;;;13.45;4.45;;;15.30;82.40;;;;;;4986626;28;20459;-72
2023/07/25 04:09:02;;;;;;;11.18;4.32;;;15.30;82.40;;;;;;4984901;28;20062;-74
2023/07/25 04:11:28;;;;;;;10.57;4.32;;;15.20;82.60;;;;;;4987983;28;20507;-75
2023/07/25 04:13:54;;;;;;;13.68;4.68;;;15.20;82.60;;;;;;4986623;28;20132;-74
2023/07/25 04:16:19;;;;;;;9.65;3.78;;;15.10;82.90;;;;;;4989822;28;20030;-74
2023/07/25 04:18:45;;;;;;;14.05;4.70;;;15.20;83.10;;;;;;4986023;28;20169;-73
2023/07/25 04:21:11;;;;;;;13.55;4.78;;;15.20;83.20;;;;;;4986789;28;20057;-73
2023/07/25 04:23:37;;;;;;;13.48;4.97;;;15.20;83.30;;;;;;4987009;28;20037;-74
2023/07/25 04:26:02;;;;;;;12.15;4.82;;;15.10;83.60;;;;;;4980988;28;20042;-73
2023/07/25 04:28:28;;;;;;;9.80;4.25;;;15.20;83.80;;;;;;4981778;28;20061;-73
2023/07/25 04:30:53;;;;;;;10.23;4.50;;;15.10;84.10;;;;;;4989222;28;20042;-73
2023/07/25 04:33:19;;;;;;;12.38;5.28;;;15.10;84.30;;;;;;4981659;28;20038;-74
2023/07/25 04:35:45;;;;;;;11.32;4.72;;;15.00;84.40;;;;;;4983847;28;20404;-73
2023/07/25 04:38:14;;;;;;;9.43;4.03;;;15.00;84.70;;;;;;4982418;28;20038;-74
2023/07/25 04:40:41;;;;;;;13.02;4.85;;;15.00;84.80;;;;;;4985185;28;20081;-76
2023/07/25 04:43:07;;;;;;;13.15;4.95;;;15.00;84.90;;;;;;4981837;28;20495;-74
2023/07/25 04:45:33;;;;;;;10.25;4.28;;;15.00;85.00;;;;;;4984086;28;20048;-75
2023/07/25 04:47:58;;;;;;;14.00;4.78;;;15.00;84.70;;;;;;4986452;28;20407;-75
2023/07/25 04:50:24;;;;;;;13.02;4.60;;;15.00;84.80;;;;;;5007363;28;20125;-73
2023/07/25 04:52:50;;;;;;;10.25;4.40;;;15.00;84.90;;;;;;4987408;28;20396;-73
2023/07/25 04:55:15;;;;;;;10.63;4.43;;;15.10;84.80;;;;;;4998010;28;20030;-74
2023/07/25 04:57:41;;;;;;;9.63;4.00;;;15.10;84.70;;;;;;4983144;28;20275;-73
2023/07/25 05:00:07;;;;;;;10.07;3.88;;;15.10;84.40;;;;;;4991701;28;20149;-75
2023/07/25 05:02:33;;;;;;;11.02;4.10;;;15.10;84.50;;;;;;4982825;28;20027;-74
2023/07/25 05:04:59;;;;;;;10.00;3.78;;;15.10;84.10;;;;;;4984264;28;20045;-73
2023/07/25 05:07:25;;;;;;;12.15;4.35;;;15.10;84.40;;;;;;4992484;28;20106;-73
2023/07/25 05:09:50;;;;;;;10.57;3.95;;;15.10;84.80;;;;;;4981896;28;20335;-76
2023/07/25 05:12:16;;;;;;;7.85;3.45;;;15.10;84.60;;;;;;4988518;28;20041;-73
2023/07/25 05:14:41;;;;;;;10.65;3.65;;;15.10;84.70;;;;;;4985509;28;20398;-74
2023/07/25 05:17:07;;;;;;;8.00;3.60;;;15.10;84.80;;;;;;4979341;28;20050;-73
2023/07/25 05:19:33;;;;;;;10.30;3.95;;;15.10;84.60;;;;;;4985387;28;20026;-73
2023/07/25 05:21:59;;;;;;;9.13;3.90;;;15.10;84.70;;;;;;4984475;28;20038;-76
2023/07/25 05:24:25;;;;;;;11.07;3.60;;;15.10;84.80;;;;;;4988575;28;20089;-74
2023/07/25 05:26:51;;;;;;;8.13;3.85;;;15.20;84.80;;;;;;4987292;28;20039;-73
2023/07/25 05:29:17;;;;;;;9.10;3.78;;;15.20;84.80;;;;;;4987917;28;20322;-73
2023/07/25 05:31:42;;;;;;;8.27;3.72;;;15.20;84.70;;;;;;4986908;28;20472;-73
2023/07/25 05:34:08;;;;;;;7.22;3.53;;;15.20;84.80;;;;;;4985529;28;20030;-74
2023/07/25 05:36:34;;;;;;;12.10;3.88;;;15.30;84.70;;;;;;4988402;28;20046;-73
2023/07/25 05:39:00;;;;;;;13.07;4.13;;;15.30;84.30;;;;;;4987835;28;20068;-74
2023/07/25 05:41:26;;;;;;;10.95;4.35;;;15.30;84.30;;;;;;4990956;28;20451;-73
2023/07/25 05:43:51;;;;;;;8.30;4.07;;;15.40;84.50;;;;;;4989271;28;20026;-74
2023/07/25 05:46:17;;;;;;;12.18;4.10;;;15.40;84.60;;;;;;4987304;28;20069;-73
2023/07/25 05:48:43;;;;;;;11.32;4.05;;;15.40;84.30;;;;;;5002459;28;20030;-73
2023/07/25 05:51:11;;;;;;;10.88;4.30;;;15.50;84.40;;;;;;4985378;28;20510;-74
2023/07/25 05:53:37;;;;;;;9.32;3.90;;;15.50;84.30;;;;;;4983027;28;20077;-74
2023/07/25 05:56:02;;;;;;;10.93;4.70;;;15.50;84.50;;;;;;4976810;28;20038;-74
2023/07/25 05:58:28;;;;;;;10.93;4.93;;;15.60;84.70;;;;;;4979369;28;20058;-75
2023/07/25 06:00:54;;;;;;;11.55;4.90;;;15.60;85.00;;;;;;4979936;28;20209;-74
2023/07/25 06:03:20;;;;;;;11.65;5.07;;;15.70;85.10;;;;;;4995413;28;20072;-73
2023/07/25 06:05:45;;;;;;;11.38;4.50;;;15.80;85.40;;;;;;4979263;28;20023;-73
2023/07/25 06:08:11;;;;;;;10.60;4.35;;;15.90;85.30;;;;;;4983827;28;20113;-74
2023/07/25 06:10:38;;;;;;;13.05;5.20;;;15.90;85.10;;;;;;4982227;28;20117;-74
2023/07/25 06:13:04;;;;;;;10.07;5.85;;;15.90;84.70;;;;;;4983847;28;20022;-74
2023/07/25 06:15:33;;;;;;;12.57;6.60;;;16.00;84.70;;;;;;4982275;28;20125;-76
2023/07/25 06:18:02;;;;;;;12.32;6.50;;;16.00;84.70;;;;;;4985463;28;20026;-76
2023/07/25 06:20:28;;;;;;;13.63;9.07;;;16.00;84.80;;;;;;4981354;28;20037;-74
2023/07/25 06:22:54;;;;;;;16.88;9.38;;;16.10;84.70;;;;;;4984876;28;20030;-73
2023/07/25 06:25:20;;;;;;;11.68;8.30;;;16.10;84.50;;;;;;4983256;28;20049;-73
2023/07/25 06:27:45;;;;;;;13.13;8.23;;;16.30;84.40;;;;;;4981798;28;20029;-74
2023/07/25 06:30:11;;;;;;;12.70;7.50;;;16.50;84.40;;;;;;4978229;28;20225;-73
2023/07/25 06:32:39;;;;;;;13.73;6.88;;;16.60;83.60;;;;;;4981860;28;20019;-73
2023/07/25 06:35:05;;;;;;;14.00;6.43;;;16.60;82.60;;;;;;4982621;28;20061;-75
2023/07/25 06:37:35;;;;;;;11.75;5.50;;;16.70;82.40;;;;;;4980812;28;20065;-75
2023/07/25 06:40:01;;;;;;;9.95;4.97;;;16.90;82.10;;;;;;4980167;28;20046;-74
2023/07/25 06:42:28;;;;;;;9.93;5.10;;;16.80;81.80;;;;;;4983478;28;20148;-75
2023/07/25 06:44:54;;;;;;;13.55;5.40;;;17.00;81.70;;;;;;4983253;28;20040;-73
2023/07/25 06:47:20;;;;;;;10.30;4.47;;;16.90;81.60;;;;;;4980418;28;20130;-73
2023/07/25 06:49:46;;;;;;;10.35;4.78;;;17.00;81.70;;;;;;4982197;28;20035;-74
2023/07/25 06:52:11;;;;;;;11.45;4.28;;;17.10;81.50;;;;;;4984460;28;20038;-76
2023/07/25 06:54:42;;;;;;;12.35;4.57;;;17.10;81.00;;;;;;4986648;28;20127;-73
2023/07/25 06:57:07;;;;;;;11.50;3.85;;;17.10;81.00;;;;;;4980959;28;20043;-73
2023/07/25 06:59:33;;;;;;;12.55;4.47;;;17.00;79.50;;;;;;4984222;28;20037;-74
2023/07/25 07:01:59;;;;;;;14.27;4.13;;;16.90;80.60;;;;;;4986427;28;20034;-73
2023/07/25 07:04:24;;;;;;;12.95;3.90;;;16.90;80.00;;;;;;4986076;28;20026;-74
2023/07/25 07:06:50;;;;;;;11.30;4.13;;;16.70;80.00;;;;;;4987813;28;20042;-73
2023/07/25 07:09:16;;;;;;;11.18;3.97;;;16.70;80.60;;;;;;4988951;28;20404;-73
2023/07/25 07:11:41;;;;;;;12.98;4.03;;;16.70;81.00;;;;;;4989759;28;20057;-73
2023/07/25 07:14:07;;;;;;;12.60;3.78;;;16.60;80.30;;;;;;4986805;28;20026;-73
2023/07/25 07:16:33;;;;;;;9.75;4.05;;;16.60;81.00;;;;;;4985645;28;20076;-73
2023/07/25 07:18:59;;;;;;;9.10;3.15;;;16.60;81.60;;;;;;4988616;28;20088;-74
2023/07/25 07:21:25;;;;;;;9.88;3.42;;;16.50;79.70;;;;;;4999419;28;20430;-75
2023/07/25 07:23:50;;;;;;;11.38;3.88;;;16.40;79.10;;;;;;4986183;28;20846;-74
2023/07/25 07:26:16;;;;;;;10.60;3.20;;;16.40;80.20;;;;;;5000372;28;20046;-75
2023/07/25 07:28:42;;;;;;;9.77;3.78;;;16.30;79.70;;;;;;4988196;28;20041;-75
2023/07/25 07:31:12;;;;;;;10.82;3.55;;;16.30;79.60;;;;;;4986338;28;20117;-74
2023/07/25 07:33:38;;;;;;;10.98;3.60;;;16.20;79.60;;;;;;4987595;28;20034;-74
2023/07/25 07:36:04;;;;;;;7.13;3.05;;;16.30;80.20;;;;;;4986280;28;20066;-75
2023/07/25 07:38:30;;;;;;;10.45;3.55;;;16.30;79.40;;;;;;4995224;28;20053;-75
2023/07/25 07:40:55;;;;;;;11.50;3.90;;;16.30;79.20;;;;;;4986779;28;20081;-73
2023/07/25 07:43:21;;;;;;;11.68;3.05;;;16.40;79.10;;;;;;4990410;28;20474;-76
2023/07/25 07:45:48;;;;;;;10.20;2.83;;;16.50;79.10;;;;;;4987501;28;20057;-74
2023/07/25 07:48:13;;;;;;;11.13;3.15;;;16.60;78.10;;;;;;4987176;28;20026;-73
2023/07/25 07:50:39;;;;;;;6.43;2.58;;;16.70;78.40;;;;;;4986694;28;20372;-73
2023/07/25 07:53:05;;;;;;;7.65;2.85;;;16.60;77.30;;;;;;4986438;28;20407;-72
2023/07/25 07:55:31;;;;;;;8.75;2.47;;;16.70;77.20;;;;;;4985680;28;20046;-73
2023/07/25 07:57:57;;;;;;;8.02;2.40;;;16.70;77.20;;;;;;4988929;28;20072;-79
2023/07/25 08:00:26;;;;;;;10.98;3.30;;;16.80;77.00;;;;;;4987600;28;20042;-79
2023/07/25 08:02:52;;;;;;;9.30;2.80;;;17.00;76.30;;;;;;4986065;28;20459;-79
2023/07/25 08:05:18;;;;;;;9.45;3.08;;;16.90;75.30;;;;;;5000808;28;20036;-78
2023/07/25 08:07:44;;;;;;;10.05;2.83;;;16.90;76.00;;;;;;4987932;28;20045;-77
2023/07/25 08:10:10;;;;;;;7.93;2.53;;;17.00;76.10;;;;;;4988608;28;20030;-76
2023/07/25 08:12:36;;;;;;;9.07;2.92;;;17.10;76.00;;;;;;4985577;28;20046;-78
2023/07/25 08:15:02;;;;;;;8.70;2.38;;;17.10;75.70;;;;;;5000555;28;20050;-79
2023/07/25 08:17:28;;;;;;;9.13;2.45;;;17.10;74.70;;;;;;4984510;28;20033;-78
2023/07/25 08:19:54;;;;;;;8.13;2.33;;;17.10;74.80;;;;;;4986614;28;21786;-80
2023/07/25 08:22:19;;;;;;;11.15;2.50;;;17.10;74.30;;;;;;4987062;28;20033;-81
2023/07/25 08:24:46;;;;;;;10.10;2.47;;;17.00;74.20;;;;;;4989405;28;20109;-78
2023/07/25 08:27:12;;;;;;;7.82;2.40;;;17.10;75.20;;;;;;4975255;28;20042;-78
2023/07/25 08:29:47;;;;;;;11.00;2.30;;;17.10;74.00;;;;;;4979214;28;20038;-79
2023/07/25 08:32:14;;;;;;;14.35;2.90;;;17.30;73.10;;;;;;4982124;28;20049;-79
2023/07/25 08:34:40;;;;;;;6.97;2.50;;;17.40;73.30;;;;;;4985686;28;20027;-80
2023/07/25 08:37:06;;;;;;;8.40;2.50;;;17.60;73.10;;;;;;4984228;28;20046;-82
2023/07/25 08:39:32;;;;;;;9.18;2.72;;;17.60;71.70;;;;;;4984444;28;20034;-80
2023/07/25 08:41:59;;;;;;;8.50;2.47;;;17.60;72.00;;;;;;4991619;28;20105;-81
2023/07/25 08:44:26;;;;;;;7.97;2.15;;;17.60;71.60;;;;;;4982160;28;20150;-83
2023/07/25 08:46:54;;;;;;;6.70;2.03;;;17.60;71.70;;;;;;4988514;28;20049;-82
2023/07/25 08:49:29;;;;;;;7.03;2.20;;;17.60;71.20;;;;;;4986782;28;20026;-84
2023/07/25 08:51:57;;;;;;;;;;;17.60;70.80;;;;;;4997773;28;20038;-78
2023/07/25 08:54:34;;;;;;;9.20;2.65;;;17.80;70.60;;;;;;4991160;28;19960;-84
2023/07/25 08:57:01;;;;;;;5.43;1.90;;;17.70;70.10;;;;;;4998456;28;20066;-80
2023/07/25 08:59:27;;;;;;;10.65;2.55;;;17.90;70.90;;;;;;4987620;28;20023;-84
2023/07/25 09:01:54;;;;;;;9.50;2.05;;;18.10;70.10;;;;;;4986769;28;20045;-81
2023/07/25 09:04:20;;;;;;;5.78;2.10;;;18.30;70.40;;;;;;4985602;28;20647;-80
2023/07/25 09:06:46;;;;;;;9.98;2.22;;;18.40;69.20;;;;;;4989960;28;20042;-81
2023/07/25 09:09:12;;;;;;;9.45;2.00;;;18.40;67.90;;;;;;4988231;28;20028;-79
2023/07/25 09:11:38;;;;;;;8.43;2.05;;;18.40;68.10;;;;;;5006225;28;20522;-80
2023/07/25 09:14:04;;;;;;;6.32;1.83;;;18.30;68.00;;;;;;4987244;28;20036;-81
2023/07/25 09:16:31;;;;;;;7.40;2.20;;;18.30;68.00;;;;;;4984557;28;20050;-79
2023/07/25 09:18:57;;;;;;;8.52;2.47;;;18.40;67.50;;;;;;4987132;28;20109;-79
2023/07/25 09:21:23;;;;;;;7.35;2.17;;;18.20;66.80;;;;;;4993609;28;20117;-78
2023/07/25 09:24:01;;;;;;;5.63;2.15;;;18.20;67.30;;;;;;4988000;28;20709;-79
2023/07/25 09:26:30;;;;;;;10.43;2.00;;;18.20;67.30;;;;;;4982511;28;20023;-79
2023/07/25 09:28:59;;;;;;;6.32;2.03;;;18.50;66.80;;;;;;4988180;28;20038;-78
2023/07/25 09:31:27;;;;;;;6.90;2.00;;;18.80;62.50;;;;;;4986169;28;20062;-79
2023/07/25 09:33:54;;;;;;;6.40;2.03;;;19.10;62.80;;;;;;4986490;28;20035;-82
2023/07/25 09:36:21;;;;;;;9.27;1.95;;;19.30;61.30;;;;;;4994298;28;20042;-82
2023/07/25 09:38:54;;;;;;;9.32;1.98;;;19.60;61.90;;;;;;4988379;28;20467;-81
2023/07/25 09:41:23;;;;;;;6.00;2.17;;;20.10;59.70;;;;;;4989297;28;20411;-83
2023/07/25 09:43:52;;;;;;;5.22;1.88;;;20.00;59.80;;;;;;4999103;28;20034;-82
2023/07/25 09:46:18;;;;;;;6.95;2.10;;;20.20;59.70;;;;;;4991521;28;20599;-78
2023/07/25 09:48:46;;;;;;;6.15;1.85;;;20.50;59.70;;;;;;4985441;28;20073;-79
2023/07/25 09:51:12;;;;;;;8.93;1.70;;;20.80;57.30;;;;;;4990476;28;20084;-79
2023/07/25 09:53:42;;;;;;;5.22;1.65;;;20.60;55.00;;;;;;4991052;28;20027;-80
2023/07/25 09:56:09;;;;;;;7.75;1.85;;;20.50;54.70;;;;;;4987445;28;21256;-78
2023/07/25 09:58:35;;;;;;;4.53;1.48;;;20.30;55.30;;;;;;4991006;28;20027;-78
2023/07/25 10:01:03;;;;;;;5.00;1.55;;;20.60;56.80;;;;;;4988922;28;20045;-79
2023/07/25 10:03:30;;;;;;;7.07;1.67;;;20.50;53.30;;;;;;4990897;28;20045;-81
2023/07/25 10:05:57;;;;;;;5.57;1.23;;;20.70;53.50;;;;;;4991876;28;20042;-77
2023/07/25 10:08:26;;;;;;;6.93;1.55;;;20.60;52.80;;;;;;4991536;28;20498;-77
2023/07/25 10:10:55;;;;;;;5.95;1.42;;;20.40;53.80;;;;;;4998405;28;20517;-80
2023/07/25 10:13:21;;;;;;;6.68;1.38;;;20.30;54.80;;;;;;4992525;28;20025;-79
2023/07/25 10:15:48;;;;;;;5.32;1.50;;;20.20;55.30;;;;;;4989752;28;20088;-81
2023/07/25 10:18:23;;;;;;;9.90;2.35;;;20.10;55.30;;;;;;4987279;28;20026;-79
2023/07/25 10:20:50;;;;;;;7.38;2.10;;;19.90;56.30;;;;;;4970745;28;20050;-78
2023/07/25 10:23:16;;;;;;;9.60;2.40;;;19.80;56.10;;;;;;4973160;28;20099;-78
2023/07/25 10:25:42;;;;;;;5.50;1.80;;;19.70;55.90;;;;;;4965861;28;20054;-81
2023/07/25 10:28:08;;;;;;;3.90;1.20;;;19.80;55.70;;;;;;4967794;28;20042;-78
2023/07/25 10:30:45;;;;;;;3.80;1.45;;;19.80;55.20;;;;;;4966627;28;20395;-79
2023/07/25 10:33:15;;;;;;;5.63;1.83;;;19.80;54.90;;;;;;4964770;28;20050;-78
2023/07/25 10:35:54;;;;;;;7.80;2.25;;;19.80;54.10;;;;;;4973892;28;20066;-77
2023/07/25 10:38:32;;;;;;;5.20;2.05;;;19.90;54.30;;;;;;4966152;28;20030;-78
2023/07/25 10:41:07;;;;;;;3.65;1.50;;;20.00;55.40;;;;;;4976659;28;20050;-78
2023/07/25 10:43:46;;;;;;;7.18;2.00;;;20.10;55.00;;;;;;4968745;28;20486;-78
2023/07/25 10:46:17;;;;;;;4.97;1.83;;;20.00;55.60;;;;;;4969513;28;20041;-77
2023/07/25 10:48:47;;;;;;;5.63;1.40;;;19.80;55.60;;;;;;4969361;28;20061;-78
2023/07/25 10:51:15;;;;;;;6.65;1.92;;;19.80;55.20;;;;;;4980343;28;20487;-78
2023/07/25 10:54:01;;;;;;;5.68;1.65;;;19.80;55.70;;;;;;4963301;28;20035;-77
2023/07/25 10:56:27;;;;;;;4.15;1.55;;;19.80;55.60;;;;;;4961411;28;20124;-77
2023/07/25 10:59:10;;;;;;;7.47;2.10;;;19.70;55.00;;;;;;4972849;28;20066;-76
2023/07/25 11:01:44;;;;;;;5.82;1.70;;;19.70;54.10;;;;;;4969883;28;20074;-77
2023/07/25 11:04:30;;;;;;;5.70;1.55;;;19.60;55.90;;;;;;4967759;28;20027;-77
2023/07/25 11:07:09;;;;;;;4.75;1.40;;;19.80;56.10;;;;;;4962613;28;20480;-77
2023/07/25 11:09:42;;;;;;;5.90;1.33;;;20.40;55.50;;;;;;4977207;28;20113;-76
2023/07/25 11:12:10;;;;;;;3.28;1.20;;;20.30;52.50;;;;;;4968644;28;20045;-77
2023/07/25 11:14:44;;;;;;;4.90;1.35;;;20.30;51.70;;;;;;4969504;28;20031;-78
2023/07/25 11:17:13;;;;;;;3.50;1.25;;;20.50;52.40;;;;;;4965690;28;20070;-78
2023/07/25 11:19:39;;;;;;;4.05;1.15;;;20.50;50.20;;;;;;4985982;28;20062;-78
2023/07/25 11:22:11;;;;;;;3.90;1.60;;;20.60;50.50;;;;;;4974361;28;20047;-78
2023/07/25 11:24:47;;;;;;;7.32;1.48;;;21.10;49.90;;;;;;4975759;28;20033;-78
2023/07/25 11:27:13;;;;;;;3.92;1.40;;;21.10;50.30;;;;;;4969033;28;20042;-78
2023/07/25 11:29:42;;;;;;;4.03;1.40;;;21.30;48.90;;;;;;4969801;28;20031;-77
2023/07/25 11:32:08;;;;;;;3.38;1.30;;;21.50;49.10;;;;;;4964817;28;20039;-78
2023/07/25 11:34:34;;;;;;;5.22;1.55;;;21.60;50.10;;;;;;4985173;28;20066;-77
2023/07/25 11:37:00;;;;;;;1.75;1.10;;;21.60;48.20;;;;;;4974156;28;20077;-75
2023/07/25 11:39:26;;;;;;;3.65;1.20;;;21.60;50.30;;;;;;4967018;28;20046;-77
2023/07/25 11:41:51;;;;;;;2.55;1.10;;;21.50;48.10;;;;;;4976681;28;20089;-78
2023/07/25 11:44:19;;;;;;;2.85;1.50;;;21.30;49.50;;;;;;4975871;28;20023;-78
2023/07/25 11:46:49;;;;;;;4.47;1.48;;;21.40;49.30;;;;;;4974308;28;20118;-77
2023/07/25 11:49:15;;;;;;;3.08;1.40;;;21.40;49.40;;;;;;4968326;28;20098;-81
2023/07/25 11:51:41;;;;;;;4.93;1.83;;;21.10;50.50;;;;;;4968885;28;20391;-78
2023/07/25 11:54:08;;;;;;;2.80;1.30;;;21.40;50.00;;;;;;4968442;28;20485;-78
2023/07/25 11:56:35;;;;;;;5.63;1.10;;;21.80;48.80;;;;;;4982642;28;20499;-79
2023/07/25 11:59:01;;;;;;;5.35;1.40;;;22.00;46.60;;;;;;4966705;28;20486;-77
2023/07/25 12:01:32;;;;;;;6.47;1.48;;;21.60;47.60;;;;;;4971910;28;20038;-78
2023/07/25 12:04:02;;;;;;;4.25;1.33;;;21.10;48.50;;;;;;4969457;28;20039;-77
2023/07/25 12:06:32;;;;;;;7.40;1.40;;;21.20;48.10;;;;;;4970622;28;20034;-79
2023/07/25 12:09:00;;;;;;;2.95;1.40;;;21.30;46.70;;;;;;4966130;28;20425;-78
2023/07/25 12:11:26;;;;;;;4.18;1.55;;;21.40;47.70;;;;;;4969111;28;20361;-79
2023/07/25 12:13:57;;;;;;;2.58;1.30;;;21.60;45.60;;;;;;4971188;28;20085;-79
2023/07/25 12:16:34;;;;;;;3.78;1.38;;;21.50;47.10;;;;;;4965138;28;20074;-80
2023/07/25 12:19:07;;;;;;;2.75;1.30;;;21.10;48.60;;;;;;4963059;28;20125;-78
2023/07/25 12:21:34;;;;;;;3.33;1.20;;;20.90;49.10;;;;;;4967352;28;20031;-79
2023/07/25 12:24:03;;;;;;;4.13;1.15;;;21.40;49.00;;;;;;4968663;28;20231;-79
2023/07/25 12:26:41;;;;;;;3.00;1.27;;;21.80;48.30;;;;;;4965842;28;20510;-79
2023/07/25 12:29:12;;;;;;;4.07;1.38;;;22.20;47.40;;;;;;4979380;28;20038;-78
2023/07/25 12:31:38;;;;;;;3.65;1.27;;;22.20;46.60;;;;;;4958150;28;20173;-78
2023/07/25 12:34:04;;;;;;;2.30;1.20;;;21.80;46.10;;;;;;4966942;28;20118;-79
2023/07/25 12:36:30;;;;;;;2.08;1.08;;;21.70;46.60;;;;;;4968248;28;20050;-78
2023/07/25 12:38:55;;;;;;;3.83;0.90;;;21.70;47.30;;;;;;4963512;28;20071;-80